PBH weather

Paro Airport
Paro, Paro, Bhutan

Public forecast

Using degrees Celsius for public forecast. Weather courtesy of forecast.io.

Current aviation weather report (METAR) for Paro Airport

Report is more than 2 hours old.

Retrieved 2020/02/29 11:00 UTC (3 hours ago):

VQPR 291100Z 13018KT 9999 SCT050 16/M01 Q1017

Closest aviation forecast (TAF) to Paro Airport

Forecast is more than 6 hours old.

Closest forecast is Bagdogra Airport, 72.9 nm (135.0 km) SW. Retrieved 2020/02/29 06:30 UTC (7 hours ago):

TAF VEBD 290330Z 2906/2918 20005KT 6000 SCT030 SCT090 BECMG 2912/2914 4000 BR FEW030 SCT090